Aérodrome :







RETROUVEZ-NOUS SUR...

 
LOGIN :

S'inscrire | Disclaimer

   EN    FR    IT 

 









Légende :    VFR   VFR Marginal   IFR   IFR Intensif   IFR Très Intensif
Visi : 
Plafond : 
>= 8 km
>= 3000ft
5 à 8 km
1000 à 3000 ft
1500m à 5 km
500 à 1000 ft
800 à 1500m
200 à 500 ft
< 800m
< 200 ft
Symboles :   Orages  Brouillard  Fortes neiges  Fortes précipitations  Vent > 20 kt






- Altitude de l'aérodrome : 235 ft
- Code IATA : MAR


SVMC - La Chinita Int.

DERNIER METAR :
  • 062202Z AUTO NIL

METARs EXPIRÉS :
  • 062102Z AUTO NIL
  • 062002Z AUTO NIL

TAF TAF SVMC
Valide du 06 à 18h jusqu'au 07 à 18h UTC


061600Z 0618/0718 21005KT 9000 -DZ BKN010 TX30/19Z TN24/08Z
TEMPO 0618/0622 18002KT 9999 BKN016



MET'MAP, la Météo Aéronautique d'un coup d'oeil ! - Copyright ORBIFLY Décembre 2007 - Disclaimer

ORBIFLY MET'MAP TEAM :

Programmation & Développement : Alexandra Zaïnal
Sur une idée originale de : Baudouin d'Aumeries
Assistance à la programmation : Marc-Olivier Méhu
Soutien technique & logistique : Manuel Goepfert

Contact : metmap@orbifly.com




SOURCES & CREDITS :

   NOAA